sensor_id;sensor_type;location;lat;lon;timestamp;P1;P2;P0
54553;PMS5003;40450;55.848;-3.572;2023-02-28T00:00:09;13;12;
54553;PMS5003;40450;55.848;-3.572;2023-02-28T00:02:39;8;8;
54553;PMS5003;40450;55.848;-3.572;2023-02-28T00:05:10;9;9;
54553;PMS5003;40450;55.848;-3.572;2023-02-28T00:07:40;12;8;
54553;PMS5003;40450;55.848;-3.572;2023-02-28T00:10:11;13;10;
54553;PMS5003;40450;55.848;-3.572;2023-02-28T00:12:41;10;9;
54553;PMS5003;40450;55.848;-3.572;2023-02-28T00:15:11;8;8;
54553;PMS5003;40450;55.848;-3.572;2023-02-28T00:17:41;8;8;
54553;PMS5003;40450;55.848;-3.572;2023-02-28T00:20:12;9;8;
54553;PMS5003;40450;55.848;-3.572;2023-02-28T00:22:43;13;11;
54553;PMS5003;40450;55.848;-3.572;2023-02-28T00:25:14;10;10;
54553;PMS5003;40450;55.848;-3.572;2023-02-28T00:27:43;7;7;
54553;PMS5003;40450;55.848;-3.572;2023-02-28T00:30:15;11;11;
54553;PMS5003;40450;55.848;-3.572;2023-02-28T00:32:44;13;9;
54553;PMS5003;40450;55.848;-3.572;2023-02-28T00:35:15;12;11;
54553;PMS5003;40450;55.848;-3.572;2023-02-28T00:37:45;13;11;
54553;PMS5003;40450;55.848;-3.572;2023-02-28T00:40:15;9;9;
54553;PMS5003;40450;55.848;-3.572;2023-02-28T00:42:45;15;13;
54553;PMS5003;40450;55.848;-3.572;2023-02-28T00:45:16;13;12;
54553;PMS5003;40450;55.848;-3.572;2023-02-28T00:47:46;17;13;
54553;PMS5003;40450;55.848;-3.572;2023-02-28T00:50:16;13;9;
54553;PMS5003;40450;55.848;-3.572;2023-02-28T00:52:47;12;11;
54553;PMS5003;40450;55.848;-3.572;2023-02-28T00:55:17;13;9;
54553;PMS5003;40450;55.848;-3.572;2023-02-28T00:57:48;10;9;
54553;PMS5003;40450;55.848;-3.572;2023-02-28T01:00:19;9;8;
54553;PMS5003;40450;55.848;-3.572;2023-02-28T01:02:49;11;10;
54553;PMS5003;40450;55.848;-3.572;2023-02-28T01:05:19;12;11;
54553;PMS5003;40450;55.848;-3.572;2023-02-28T01:07:49;11;9;
54553;PMS5003;40450;55.848;-3.572;2023-02-28T01:10:20;7;7;
54553;PMS5003;40450;55.848;-3.572;2023-02-28T01:12:50;10;9;
54553;PMS5003;40450;55.848;-3.572;2023-02-28T01:15:20;9;9;
54553;PMS5003;40450;55.848;-3.572;2023-02-28T01:17:50;10;9;
54553;PMS5003;40450;55.848;-3.572;2023-02-28T01:20:21;12;11;
54553;PMS5003;40450;55.848;-3.572;2023-02-28T01:22:52;10;9;
54553;PMS5003;40450;55.848;-3.572;2023-02-28T01:25:22;10;10;
54553;PMS5003;40450;55.848;-3.572;2023-02-28T01:27:52;7;7;
54553;PMS5003;40450;55.848;-3.572;2023-02-28T01:30:22;9;9;
54553;PMS5003;40450;55.848;-3.572;2023-02-28T01:32:52;9;9;
54553;PMS5003;40450;55.848;-3.572;2023-02-28T01:35:23;12;12;
54553;PMS5003;40450;55.848;-3.572;2023-02-28T01:37:53;11;9;
54553;PMS5003;40450;55.848;-3.572;2023-02-28T01:40:24;10;10;
54553;PMS5003;40450;55.848;-3.572;2023-02-28T01:42:54;10;10;
54553;PMS5003;40450;55.848;-3.572;2023-02-28T01:45:25;10;10;
54553;PMS5003;40450;55.848;-3.572;2023-02-28T01:47:57;8;8;
54553;PMS5003;40450;55.848;-3.572;2023-02-28T01:50:26;8;8;
54553;PMS5003;40450;55.848;-3.572;2023-02-28T01:52:56;13;13;
54553;PMS5003;40450;55.848;-3.572;2023-02-28T01:55:26;10;10;
54553;PMS5003;40450;55.848;-3.572;2023-02-28T01:57:58;9;8;
54553;PMS5003;40450;55.848;-3.572;2023-02-28T02:00:27;8;8;
54553;PMS5003;40450;55.848;-3.572;2023-02-28T02:02:58;11;10;
54553;PMS5003;40450;55.848;-3.572;2023-02-28T02:05:28;9;9;
54553;PMS5003;40450;55.848;-3.572;2023-02-28T02:08:00;8;8;
54553;PMS5003;40450;55.848;-3.572;2023-02-28T02:10:30;9;8;
54553;PMS5003;40450;55.848;-3.572;2023-02-28T02:15:30;8;8;
54553;PMS5003;40450;55.848;-3.572;2023-02-28T02:18:01;8;8;
54553;PMS5003;40450;55.848;-3.572;2023-02-28T02:20:35;9;7;
54553;PMS5003;40450;55.848;-3.572;2023-02-28T02:23:08;9;9;
54553;PMS5003;40450;55.848;-3.572;2023-02-28T02:25:31;8;8;
54553;PMS5003;40450;55.848;-3.572;2023-02-28T02:28:07;11;9;
54553;PMS5003;40450;55.848;-3.572;2023-02-28T02:30:37;9;9;
54553;PMS5003;40450;55.848;-3.572;2023-02-28T02:33:03;7;7;
54553;PMS5003;40450;55.848;-3.572;2023-02-28T02:35:34;10;8;
54553;PMS5003;40450;55.848;-3.572;2023-02-28T02:38:04;10;10;
54553;PMS5003;40450;55.848;-3.572;2023-02-28T02:40:35;12;9;
54553;PMS5003;40450;55.848;-3.572;2023-02-28T02:43:04;7;6;
54553;PMS5003;40450;55.848;-3.572;2023-02-28T02:45:34;8;8;
54553;PMS5003;40450;55.848;-3.572;2023-02-28T02:48:05;10;7;
54553;PMS5003;40450;55.848;-3.572;2023-02-28T02:50:36;7;7;
54553;PMS5003;40450;55.848;-3.572;2023-02-28T02:53:05;6;6;
54553;PMS5003;40450;55.848;-3.572;2023-02-28T02:55:37;10;9;
54553;PMS5003;40450;55.848;-3.572;2023-02-28T02:58:07;7;6;
54553;PMS5003;40450;55.848;-3.572;2023-02-28T03:00:37;7;7;
54553;PMS5003;40450;55.848;-3.572;2023-02-28T03:03:06;6;6;
54553;PMS5003;40450;55.848;-3.572;2023-02-28T03:05:39;7;7;
54553;PMS5003;40450;55.848;-3.572;2023-02-28T03:08:07;10;8;
54553;PMS5003;40450;55.848;-3.572;2023-02-28T03:10:39;7;7;
54553;PMS5003;40450;55.848;-3.572;2023-02-28T03:15:40;7;7;
54553;PMS5003;40450;55.848;-3.572;2023-02-28T03:18:09;7;7;
54553;PMS5003;40450;55.848;-3.572;2023-02-28T03:20:40;8;6;
54553;PMS5003;40450;55.848;-3.572;2023-02-28T03:23:12;9;9;
54553;PMS5003;40450;55.848;-3.572;2023-02-28T03:25:43;9;8;
54553;PMS5003;40450;55.848;-3.572;2023-02-28T03:28:12;8;7;
54553;PMS5003;40450;55.848;-3.572;2023-02-28T03:30:42;10;9;
54553;PMS5003;40450;55.848;-3.572;2023-02-28T03:33:12;9;7;
54553;PMS5003;40450;55.848;-3.572;2023-02-28T03:35:42;6;6;
54553;PMS5003;40450;55.848;-3.572;2023-02-28T03:38:13;7;7;
54553;PMS5003;40450;55.848;-3.572;2023-02-28T03:40:44;7;7;
54553;PMS5003;40450;55.848;-3.572;2023-02-28T03:43:15;7;7;
54553;PMS5003;40450;55.848;-3.572;2023-02-28T03:45:43;7;7;
54553;PMS5003;40450;55.848;-3.572;2023-02-28T03:48:15;6;6;
54553;PMS5003;40450;55.848;-3.572;2023-02-28T03:50:44;8;8;
54553;PMS5003;40450;55.848;-3.572;2023-02-28T03:53:16;8;8;
54553;PMS5003;40450;55.848;-3.572;2023-02-28T03:55:46;8;7;
54553;PMS5003;40450;55.848;-3.572;2023-02-28T03:58:17;7;7;
54553;PMS5003;40450;55.848;-3.572;2023-02-28T04:00:46;7;7;
54553;PMS5003;40450;55.848;-3.572;2023-02-28T04:03:16;8;7;
54553;PMS5003;40450;55.848;-3.572;2023-02-28T04:05:48;9;9;
54553;PMS5003;40450;55.848;-3.572;2023-02-28T04:08:17;10;9;
54553;PMS5003;40450;55.848;-3.572;2023-02-28T04:10:49;8;8;
54553;PMS5003;40450;55.848;-3.572;2023-02-28T04:13:18;9;7;
54553;PMS5003;40450;55.848;-3.572;2023-02-28T04:15:48;8;7;
54553;PMS5003;40450;55.848;-3.572;2023-02-28T04:18:18;7;7;
54553;PMS5003;40450;55.848;-3.572;2023-02-28T04:20:49;8;8;
54553;PMS5003;40450;55.848;-3.572;2023-02-28T04:23:19;7;6;
54553;PMS5003;40450;55.848;-3.572;2023-02-28T04:25:50;8;8;
54553;PMS5003;40450;55.848;-3.572;2023-02-28T04:28:20;8;8;
54553;PMS5003;40450;55.848;-3.572;2023-02-28T04:30:54;9;9;
54553;PMS5003;40450;55.848;-3.572;2023-02-28T04:33:21;9;9;
54553;PMS5003;40450;55.848;-3.572;2023-02-28T04:38:22;9;9;
54553;PMS5003;40450;55.848;-3.572;2023-02-28T04:40:52;8;7;
54553;PMS5003;40450;55.848;-3.572;2023-02-28T04:43:22;7;7;
54553;PMS5003;40450;55.848;-3.572;2023-02-28T04:45:53;8;7;
54553;PMS5003;40450;55.848;-3.572;2023-02-28T04:48:23;7;7;
54553;PMS5003;40450;55.848;-3.572;2023-02-28T04:50:54;11;9;
54553;PMS5003;40450;55.848;-3.572;2023-02-28T04:53:24;10;10;
54553;PMS5003;40450;55.848;-3.572;2023-02-28T04:55:55;8;8;
54553;PMS5003;40450;55.848;-3.572;2023-02-28T04:58:25;9;9;
54553;PMS5003;40450;55.848;-3.572;2023-02-28T05:03:26;9;9;
54553;PMS5003;40450;55.848;-3.572;2023-02-28T05:05:56;9;8;
54553;PMS5003;40450;55.848;-3.572;2023-02-28T05:08:26;11;9;
54553;PMS5003;40450;55.848;-3.572;2023-02-28T05:10:57;9;8;
54553;PMS5003;40450;55.848;-3.572;2023-02-28T05:13:28;7;7;
54553;PMS5003;40450;55.848;-3.572;2023-02-28T05:15:58;8;8;
54553;PMS5003;40450;55.848;-3.572;2023-02-28T05:18:28;8;7;
54553;PMS5003;40450;55.848;-3.572;2023-02-28T05:20:59;12;9;
54553;PMS5003;40450;55.848;-3.572;2023-02-28T05:23:29;10;10;
54553;PMS5003;40450;55.848;-3.572;2023-02-28T05:26:04;15;15;
54553;PMS5003;40450;55.848;-3.572;2023-02-28T05:28:30;13;12;
54553;PMS5003;40450;55.848;-3.572;2023-02-28T05:31:00;14;13;
54553;PMS5003;40450;55.848;-3.572;2023-02-28T05:33:30;13;13;
54553;PMS5003;40450;55.848;-3.572;2023-02-28T05:36:00;14;12;
54553;PMS5003;40450;55.848;-3.572;2023-02-28T05:38:31;15;13;
54553;PMS5003;40450;55.848;-3.572;2023-02-28T05:41:04;16;13;
54553;PMS5003;40450;55.848;-3.572;2023-02-28T05:43:32;13;11;
54553;PMS5003;40450;55.848;-3.572;2023-02-28T05:46:03;15;15;
54553;PMS5003;40450;55.848;-3.572;2023-02-28T05:48:33;16;15;
54553;PMS5003;40450;55.848;-3.572;2023-02-28T05:51:03;15;13;
54553;PMS5003;40450;55.848;-3.572;2023-02-28T05:53:33;13;12;
54553;PMS5003;40450;55.848;-3.572;2023-02-28T05:56:04;14;12;
54553;PMS5003;40450;55.848;-3.572;2023-02-28T05:58:35;13;13;
54553;PMS5003;40450;55.848;-3.572;2023-02-28T06:03:35;12;12;
54553;PMS5003;40450;55.848;-3.572;2023-02-28T06:06:05;14;11;
54553;PMS5003;40450;55.848;-3.572;2023-02-28T06:08:35;12;10;
54553;PMS5003;40450;55.848;-3.572;2023-02-28T06:11:06;19;17;
54553;PMS5003;40450;55.848;-3.572;2023-02-28T06:13:36;13;10;
54553;PMS5003;40450;55.848;-3.572;2023-02-28T06:16:06;10;10;
54553;PMS5003;40450;55.848;-3.572;2023-02-28T06:18:36;12;10;
54553;PMS5003;40450;55.848;-3.572;2023-02-28T06:21:07;12;11;
54553;PMS5003;40450;55.848;-3.572;2023-02-28T06:23:37;10;10;
54553;PMS5003;40450;55.848;-3.572;2023-02-28T06:26:08;12;10;
54553;PMS5003;40450;55.848;-3.572;2023-02-28T06:28:38;10;9;
54553;PMS5003;40450;55.848;-3.572;2023-02-28T06:31:11;9;9;
54553;PMS5003;40450;55.848;-3.572;2023-02-28T06:33:39;11;11;
54553;PMS5003;40450;55.848;-3.572;2023-02-28T06:36:10;9;9;
54553;PMS5003;40450;55.848;-3.572;2023-02-28T06:38:40;10;8;
54553;PMS5003;40450;55.848;-3.572;2023-02-28T06:41:10;13;11;
54553;PMS5003;40450;55.848;-3.572;2023-02-28T06:43:41;9;9;
54553;PMS5003;40450;55.848;-3.572;2023-02-28T06:46:12;10;9;
54553;PMS5003;40450;55.848;-3.572;2023-02-28T06:48:42;9;8;
54553;PMS5003;40450;55.848;-3.572;2023-02-28T06:51:12;10;8;
54553;PMS5003;40450;55.848;-3.572;2023-02-28T06:53:42;10;10;
54553;PMS5003;40450;55.848;-3.572;2023-02-28T06:56:13;11;9;
54553;PMS5003;40450;55.848;-3.572;2023-02-28T06:58:45;9;9;
54553;PMS5003;40450;55.848;-3.572;2023-02-28T07:01:13;9;9;
54553;PMS5003;40450;55.848;-3.572;2023-02-28T07:03:44;7;7;
54553;PMS5003;40450;55.848;-3.572;2023-02-28T07:06:14;9;9;
54553;PMS5003;40450;55.848;-3.572;2023-02-28T07:08:44;9;8;
54553;PMS5003;40450;55.848;-3.572;2023-02-28T07:11:15;10;8;
54553;PMS5003;40450;55.848;-3.572;2023-02-28T07:13:45;11;10;
54553;PMS5003;40450;55.848;-3.572;2023-02-28T07:16:15;9;9;
54553;PMS5003;40450;55.848;-3.572;2023-02-28T07:18:46;9;8;
54553;PMS5003;40450;55.848;-3.572;2023-02-28T07:21:17;16;16;
54553;PMS5003;40450;55.848;-3.572;2023-02-28T07:23:47;12;11;
54553;PMS5003;40450;55.848;-3.572;2023-02-28T07:26:18;13;12;
54553;PMS5003;40450;55.848;-3.572;2023-02-28T07:28:48;16;14;
54553;PMS5003;40450;55.848;-3.572;2023-02-28T07:31:19;16;12;
54553;PMS5003;40450;55.848;-3.572;2023-02-28T07:33:49;22;21;
54553;PMS5003;40450;55.848;-3.572;2023-02-28T07:36:19;8;6;
54553;PMS5003;40450;55.848;-3.572;2023-02-28T07:38:49;10;10;
54553;PMS5003;40450;55.848;-3.572;2023-02-28T07:41:20;6;6;
54553;PMS5003;40450;55.848;-3.572;2023-02-28T07:43:52;11;10;
54553;PMS5003;40450;55.848;-3.572;2023-02-28T07:46:21;16;16;
54553;PMS5003;40450;55.848;-3.572;2023-02-28T07:48:51;8;8;
54553;PMS5003;40450;55.848;-3.572;2023-02-28T07:51:22;14;14;
54553;PMS5003;40450;55.848;-3.572;2023-02-28T07:53:51;9;9;
54553;PMS5003;40450;55.848;-3.572;2023-02-28T07:56:22;11;10;
54553;PMS5003;40450;55.848;-3.572;2023-02-28T07:58:52;12;9;
54553;PMS5003;40450;55.848;-3.572;2023-02-28T08:01:23;8;8;
54553;PMS5003;40450;55.848;-3.572;2023-02-28T08:03:53;13;13;
54553;PMS5003;40450;55.848;-3.572;2023-02-28T08:06:25;15;12;
54553;PMS5003;40450;55.848;-3.572;2023-02-28T08:08:54;9;7;
54553;PMS5003;40450;55.848;-3.572;2023-02-28T08:11:25;9;9;
54553;PMS5003;40450;55.848;-3.572;2023-02-28T08:13:55;10;10;
54553;PMS5003;40450;55.848;-3.572;2023-02-28T08:16:26;11;11;
54553;PMS5003;40450;55.848;-3.572;2023-02-28T08:18:56;10;10;
54553;PMS5003;40450;55.848;-3.572;2023-02-28T08:21:26;11;10;
54553;PMS5003;40450;55.848;-3.572;2023-02-28T08:23:57;10;10;
54553;PMS5003;40450;55.848;-3.572;2023-02-28T08:26:27;7;7;
54553;PMS5003;40450;55.848;-3.572;2023-02-28T08:28:58;12;8;
54553;PMS5003;40450;55.848;-3.572;2023-02-28T08:31:28;8;8;
54553;PMS5003;40450;55.848;-3.572;2023-02-28T08:33:59;9;9;
54553;PMS5003;40450;55.848;-3.572;2023-02-28T08:36:29;11;10;
54553;PMS5003;40450;55.848;-3.572;2023-02-28T08:38:59;10;8;
54553;PMS5003;40450;55.848;-3.572;2023-02-28T08:41:30;6;6;
54553;PMS5003;40450;55.848;-3.572;2023-02-28T08:44:00;9;8;
54553;PMS5003;40450;55.848;-3.572;2023-02-28T08:46:31;7;7;
54553;PMS5003;40450;55.848;-3.572;2023-02-28T08:49:01;6;6;
54553;PMS5003;40450;55.848;-3.572;2023-02-28T08:51:32;4;4;
54553;PMS5003;40450;55.848;-3.572;2023-02-28T08:54:02;5;5;
54553;PMS5003;40450;55.848;-3.572;2023-02-28T08:56:33;11;10;
54553;PMS5003;40450;55.848;-3.572;2023-02-28T08:59:03;8;8;
54553;PMS5003;40450;55.848;-3.572;2023-02-28T09:01:33;9;9;
54553;PMS5003;40450;55.848;-3.572;2023-02-28T09:04:04;6;5;
54553;PMS5003;40450;55.848;-3.572;2023-02-28T09:06:34;5;5;
54553;PMS5003;40450;55.848;-3.572;2023-02-28T09:09:05;4;4;
54553;PMS5003;40450;55.848;-3.572;2023-02-28T09:11:36;4;4;
54553;PMS5003;40450;55.848;-3.572;2023-02-28T09:14:06;6;5;
54553;PMS5003;40450;55.848;-3.572;2023-02-28T09:16:36;2;2;
54553;PMS5003;40450;55.848;-3.572;2023-02-28T09:19:07;2;1;
54553;PMS5003;40450;55.848;-3.572;2023-02-28T09:21:38;1;1;
54553;PMS5003;40450;55.848;-3.572;2023-02-28T09:24:08;1;1;
54553;PMS5003;40450;55.848;-3.572;2023-02-28T09:26:38;1;1;
54553;PMS5003;40450;55.848;-3.572;2023-02-28T09:29:09;1;1;
54553;PMS5003;40450;55.848;-3.572;2023-02-28T09:31:39;1;1;
54553;PMS5003;40450;55.848;-3.572;2023-02-28T09:34:09;1;1;
54553;PMS5003;40450;55.848;-3.572;2023-02-28T09:36:39;1;1;
54553;PMS5003;40450;55.848;-3.572;2023-02-28T09:39:10;2;1;
54553;PMS5003;40450;55.848;-3.572;2023-02-28T09:41:41;1;1;
54553;PMS5003;40450;55.848;-3.572;2023-02-28T09:44:12;0;0;
54553;PMS5003;40450;55.848;-3.572;2023-02-28T09:46:42;1;1;
54553;PMS5003;40450;55.848;-3.572;2023-02-28T09:49:12;1;1;
54553;PMS5003;40450;55.848;-3.572;2023-02-28T09:51:45;1;1;
54553;PMS5003;40450;55.848;-3.572;2023-02-28T09:54:14;1;1;
54553;PMS5003;40450;55.848;-3.572;2023-02-28T09:56:44;1;1;
54553;PMS5003;40450;55.848;-3.572;2023-02-28T09:59:17;0;0;
54553;PMS5003;40450;55.848;-3.572;2023-02-28T10:01:45;2;1;
54553;PMS5003;40450;55.848;-3.572;2023-02-28T10:04:16;0;0;
54553;PMS5003;40450;55.848;-3.572;2023-02-28T10:06:46;1;1;
54553;PMS5003;40450;55.848;-3.572;2023-02-28T10:09:17;0;0;
54553;PMS5003;40450;55.848;-3.572;2023-02-28T10:11:46;2;2;
54553;PMS5003;40450;55.848;-3.572;2023-02-28T10:14:17;1;1;
54553;PMS5003;40450;55.848;-3.572;2023-02-28T10:16:48;1;1;
54553;PMS5003;40450;55.848;-3.572;2023-02-28T10:19:19;2;2;
54553;PMS5003;40450;55.848;-3.572;2023-02-28T10:21:50;2;2;
54553;PMS5003;40450;55.848;-3.572;2023-02-28T10:24:20;2;1;
54553;PMS5003;40450;55.848;-3.572;2023-02-28T10:26:49;1;1;
54553;PMS5003;40450;55.848;-3.572;2023-02-28T10:29:19;2;2;
54553;PMS5003;40450;55.848;-3.572;2023-02-28T10:31:50;2;1;
54553;PMS5003;40450;55.848;-3.572;2023-02-28T10:34:20;2;1;
54553;PMS5003;40450;55.848;-3.572;2023-02-28T10:36:51;1;1;
54553;PMS5003;40450;55.848;-3.572;2023-02-28T10:41:51;0;0;
54553;PMS5003;40450;55.848;-3.572;2023-02-28T10:44:22;0;0;
54553;PMS5003;40450;55.848;-3.572;2023-02-28T10:46:52;1;1;
54553;PMS5003;40450;55.848;-3.572;2023-02-28T10:49:23;0;0;
54553;PMS5003;40450;55.848;-3.572;2023-02-28T10:51:54;0;0;
54553;PMS5003;40450;55.848;-3.572;2023-02-28T10:54:24;0;0;
54553;PMS5003;40450;55.848;-3.572;2023-02-28T10:59:27;1;0;
54553;PMS5003;40450;55.848;-3.572;2023-02-28T11:01:55;0;0;
54553;PMS5003;40450;55.848;-3.572;2023-02-28T11:06:57;2;1;
54553;PMS5003;40450;55.848;-3.572;2023-02-28T11:09:27;2;2;
54553;PMS5003;40450;55.848;-3.572;2023-02-28T11:11:57;0;0;
54553;PMS5003;40450;55.848;-3.572;2023-02-28T11:14:28;0;0;
54553;PMS5003;40450;55.848;-3.572;2023-02-28T11:16:58;1;1;
54553;PMS5003;40450;55.848;-3.572;2023-02-28T11:19:28;0;0;
54553;PMS5003;40450;55.848;-3.572;2023-02-28T11:21:59;1;1;
54553;PMS5003;40450;55.848;-3.572;2023-02-28T11:24:29;1;1;
54553;PMS5003;40450;55.848;-3.572;2023-02-28T11:26:59;0;0;
54553;PMS5003;40450;55.848;-3.572;2023-02-28T11:29:30;2;2;
54553;PMS5003;40450;55.848;-3.572;2023-02-28T11:32:02;1;0;
54553;PMS5003;40450;55.848;-3.572;2023-02-28T11:34:31;0;0;
54553;PMS5003;40450;55.848;-3.572;2023-02-28T11:37:01;3;2;
54553;PMS5003;40450;55.848;-3.572;2023-02-28T11:39:32;0;0;
54553;PMS5003;40450;55.848;-3.572;2023-02-28T11:42:06;0;0;
54553;PMS5003;40450;55.848;-3.572;2023-02-28T11:44:36;1;1;
54553;PMS5003;40450;55.848;-3.572;2023-02-28T11:47:04;0;0;
54553;PMS5003;40450;55.848;-3.572;2023-02-28T11:49:35;1;1;
54553;PMS5003;40450;55.848;-3.572;2023-02-28T11:52:06;1;1;
54553;PMS5003;40450;55.848;-3.572;2023-02-28T11:54:39;1;1;
54553;PMS5003;40450;55.848;-3.572;2023-02-28T11:57:09;1;1;
54553;PMS5003;40450;55.848;-3.572;2023-02-28T11:59:38;0;0;
54553;PMS5003;40450;55.848;-3.572;2023-02-28T12:02:15;0;0;
54553;PMS5003;40450;55.848;-3.572;2023-02-28T12:04:39;0;0;
54553;PMS5003;40450;55.848;-3.572;2023-02-28T12:07:09;0;0;
54553;PMS5003;40450;55.848;-3.572;2023-02-28T12:09:40;2;1;
54553;PMS5003;40450;55.848;-3.572;2023-02-28T12:12:10;0;0;
54553;PMS5003;40450;55.848;-3.572;2023-02-28T12:14:45;1;1;
54553;PMS5003;40450;55.848;-3.572;2023-02-28T12:17:12;2;1;
54553;PMS5003;40450;55.848;-3.572;2023-02-28T12:19:40;2;0;
54553;PMS5003;40450;55.848;-3.572;2023-02-28T12:22:12;0;0;
54553;PMS5003;40450;55.848;-3.572;2023-02-28T12:24:44;0;0;
54553;PMS5003;40450;55.848;-3.572;2023-02-28T12:27:10;0;0;
54553;PMS5003;40450;55.848;-3.572;2023-02-28T12:29:47;0;0;
54553;PMS5003;40450;55.848;-3.572;2023-02-28T12:32:12;1;1;
54553;PMS5003;40450;55.848;-3.572;2023-02-28T12:34:42;0;0;
54553;PMS5003;40450;55.848;-3.572;2023-02-28T12:37:13;1;1;
54553;PMS5003;40450;55.848;-3.572;2023-02-28T12:39:43;0;0;
54553;PMS5003;40450;55.848;-3.572;2023-02-28T12:42:24;0;0;
54553;PMS5003;40450;55.848;-3.572;2023-02-28T12:44:43;0;0;
54553;PMS5003;40450;55.848;-3.572;2023-02-28T12:47:14;0;0;
54553;PMS5003;40450;55.848;-3.572;2023-02-28T12:49:45;1;0;
54553;PMS5003;40450;55.848;-3.572;2023-02-28T12:52:14;0;0;
54553;PMS5003;40450;55.848;-3.572;2023-02-28T12:54:47;1;1;
54553;PMS5003;40450;55.848;-3.572;2023-02-28T12:57:16;0;0;
54553;PMS5003;40450;55.848;-3.572;2023-02-28T12:59:45;0;0;
54553;PMS5003;40450;55.848;-3.572;2023-02-28T13:04:51;0;0;
54553;PMS5003;40450;55.848;-3.572;2023-02-28T13:09:51;0;0;
54553;PMS5003;40450;55.848;-3.572;2023-02-28T13:12:17;0;0;
54553;PMS5003;40450;55.848;-3.572;2023-02-28T13:14:48;0;0;
54553;PMS5003;40450;55.848;-3.572;2023-02-28T13:17:18;1;1;
54553;PMS5003;40450;55.848;-3.572;2023-02-28T13:22:20;1;1;
54553;PMS5003;40450;55.848;-3.572;2023-02-28T13:24:50;5;5;
54553;PMS5003;40450;55.848;-3.572;2023-02-28T13:27:21;3;3;
54553;PMS5003;40450;55.848;-3.572;2023-02-28T13:29:51;1;1;
54553;PMS5003;40450;55.848;-3.572;2023-02-28T13:39:52;3;3;
54553;PMS5003;40450;55.848;-3.572;2023-02-28T13:42:23;4;2;
54553;PMS5003;40450;55.848;-3.572;2023-02-28T13:47:24;2;2;
54553;PMS5003;40450;55.848;-3.572;2023-02-28T13:49:55;4;2;
54553;PMS5003;40450;55.848;-3.572;2023-02-28T13:52:24;3;3;
54553;PMS5003;40450;55.848;-3.572;2023-02-28T13:55:01;1;1;
54553;PMS5003;40450;55.848;-3.572;2023-02-28T13:57:27;2;2;
54553;PMS5003;40450;55.848;-3.572;2023-02-28T14:00:02;1;1;
54553;PMS5003;40450;55.848;-3.572;2023-02-28T14:02:31;2;2;
54553;PMS5003;40450;55.848;-3.572;2023-02-28T14:05:00;2;2;
54553;PMS5003;40450;55.848;-3.572;2023-02-28T14:07:28;1;1;
54553;PMS5003;40450;55.848;-3.572;2023-02-28T14:09:59;1;1;
54553;PMS5003;40450;55.848;-3.572;2023-02-28T14:14:58;1;1;
54553;PMS5003;40450;55.848;-3.572;2023-02-28T14:17:28;3;3;
54553;PMS5003;40450;55.848;-3.572;2023-02-28T14:19:59;5;5;
54553;PMS5003;40450;55.848;-3.572;2023-02-28T14:27:33;1;1;
54553;PMS5003;40450;55.848;-3.572;2023-02-28T14:30:07;2;2;
54553;PMS5003;40450;55.848;-3.572;2023-02-28T14:32:32;2;2;
54553;PMS5003;40450;55.848;-3.572;2023-02-28T14:35:04;2;2;
54553;PMS5003;40450;55.848;-3.572;2023-02-28T14:37:33;1;1;
54553;PMS5003;40450;55.848;-3.572;2023-02-28T14:40:02;1;1;
54553;PMS5003;40450;55.848;-3.572;2023-02-28T14:42:33;2;2;
54553;PMS5003;40450;55.848;-3.572;2023-02-28T14:45:04;1;1;
54553;PMS5003;40450;55.848;-3.572;2023-02-28T14:47:34;1;1;
54553;PMS5003;40450;55.848;-3.572;2023-02-28T14:50:04;3;3;
54553;PMS5003;40450;55.848;-3.572;2023-02-28T14:52:37;3;2;
54553;PMS5003;40450;55.848;-3.572;2023-02-28T14:55:06;2;2;
54553;PMS5003;40450;55.848;-3.572;2023-02-28T14:57:39;1;1;
54553;PMS5003;40450;55.848;-3.572;2023-02-28T15:00:11;2;2;
54553;PMS5003;40450;55.848;-3.572;2023-02-28T15:02:37;2;2;
54553;PMS5003;40450;55.848;-3.572;2023-02-28T15:07:37;3;3;
54553;PMS5003;40450;55.848;-3.572;2023-02-28T15:10:09;2;2;
54553;PMS5003;40450;55.848;-3.572;2023-02-28T15:12:39;1;1;
54553;PMS5003;40450;55.848;-3.572;2023-02-28T15:17:44;2;0;
54553;PMS5003;40450;55.848;-3.572;2023-02-28T15:20:10;1;0;
54553;PMS5003;40450;55.848;-3.572;2023-02-28T15:22:41;1;1;
54553;PMS5003;40450;55.848;-3.572;2023-02-28T15:25:10;0;0;
54553;PMS5003;40450;55.848;-3.572;2023-02-28T15:27:42;1;1;
54553;PMS5003;40450;55.848;-3.572;2023-02-28T15:30:14;0;0;
54553;PMS5003;40450;55.848;-3.572;2023-02-28T15:32:41;0;0;
54553;PMS5003;40450;55.848;-3.572;2023-02-28T15:37:45;0;0;
54553;PMS5003;40450;55.848;-3.572;2023-02-28T15:40:14;0;0;
54553;PMS5003;40450;55.848;-3.572;2023-02-28T15:42:43;1;1;
54553;PMS5003;40450;55.848;-3.572;2023-02-28T15:47:46;0;0;
54553;PMS5003;40450;55.848;-3.572;2023-02-28T15:50:14;0;0;
54553;PMS5003;40450;55.848;-3.572;2023-02-28T15:52:45;1;1;
54553;PMS5003;40450;55.848;-3.572;2023-02-28T15:55:17;0;0;
54553;PMS5003;40450;55.848;-3.572;2023-02-28T15:57:46;0;0;
54553;PMS5003;40450;55.848;-3.572;2023-02-28T16:00:18;1;1;
54553;PMS5003;40450;55.848;-3.572;2023-02-28T16:02:46;1;1;
54553;PMS5003;40450;55.848;-3.572;2023-02-28T16:05:19;2;0;
54553;PMS5003;40450;55.848;-3.572;2023-02-28T16:07:48;2;2;
54553;PMS5003;40450;55.848;-3.572;2023-02-28T16:10:17;0;0;
54553;PMS5003;40450;55.848;-3.572;2023-02-28T16:12:48;0;0;
54553;PMS5003;40450;55.848;-3.572;2023-02-28T16:15:20;0;0;
54553;PMS5003;40450;55.848;-3.572;2023-02-28T16:20:21;2;1;
54553;PMS5003;40450;55.848;-3.572;2023-02-28T16:22:50;1;1;
54553;PMS5003;40450;55.848;-3.572;2023-02-28T16:25:21;1;1;
54553;PMS5003;40450;55.848;-3.572;2023-02-28T16:27:53;2;2;
54553;PMS5003;40450;55.848;-3.572;2023-02-28T16:30:28;1;1;
54553;PMS5003;40450;55.848;-3.572;2023-02-28T16:32:52;1;1;
54553;PMS5003;40450;55.848;-3.572;2023-02-28T16:35:22;1;1;
54553;PMS5003;40450;55.848;-3.572;2023-02-28T16:37:52;2;2;
54553;PMS5003;40450;55.848;-3.572;2023-02-28T16:40:23;1;1;
54553;PMS5003;40450;55.848;-3.572;2023-02-28T16:42:55;1;1;
54553;PMS5003;40450;55.848;-3.572;2023-02-28T16:45:31;2;2;
54553;PMS5003;40450;55.848;-3.572;2023-02-28T16:50:25;2;0;
54553;PMS5003;40450;55.848;-3.572;2023-02-28T16:52:55;2;2;
54553;PMS5003;40450;55.848;-3.572;2023-02-28T16:55:25;2;2;
54553;PMS5003;40450;55.848;-3.572;2023-02-28T16:57:56;5;4;
54553;PMS5003;40450;55.848;-3.572;2023-02-28T17:00:27;2;1;
54553;PMS5003;40450;55.848;-3.572;2023-02-28T17:02:57;2;2;
54553;PMS5003;40450;55.848;-3.572;2023-02-28T17:05:27;1;1;
54553;PMS5003;40450;55.848;-3.572;2023-02-28T17:10:28;1;1;
54553;PMS5003;40450;55.848;-3.572;2023-02-28T17:12:59;1;1;
54553;PMS5003;40450;55.848;-3.572;2023-02-28T17:15:29;0;0;
54553;PMS5003;40450;55.848;-3.572;2023-02-28T17:18:01;1;1;
54553;PMS5003;40450;55.848;-3.572;2023-02-28T17:20:36;2;2;
54553;PMS5003;40450;55.848;-3.572;2023-02-28T17:23:06;1;1;
54553;PMS5003;40450;55.848;-3.572;2023-02-28T17:25:33;1;1;
54553;PMS5003;40450;55.848;-3.572;2023-02-28T17:28:01;1;1;
54553;PMS5003;40450;55.848;-3.572;2023-02-28T17:30:33;1;1;
54553;PMS5003;40450;55.848;-3.572;2023-02-28T17:33:02;4;2;
54553;PMS5003;40450;55.848;-3.572;2023-02-28T17:35:32;1;1;
54553;PMS5003;40450;55.848;-3.572;2023-02-28T17:38:03;5;3;
54553;PMS5003;40450;55.848;-3.572;2023-02-28T17:40:33;0;0;
54553;PMS5003;40450;55.848;-3.572;2023-02-28T17:43:04;1;1;
54553;PMS5003;40450;55.848;-3.572;2023-02-28T17:45:34;3;2;
54553;PMS5003;40450;55.848;-3.572;2023-02-28T17:50:35;4;4;